Terminal Aerodrome Forecast
Issued by NWS Hastings, NE

Home | Current Version | Previous Version | Text Only | Print | Product List | Glossary On
Versions: 1 2 3 4 5 6 7 8 9 10 11 12 13 14 15 16 17 18 19 20 21 22 23 24 25 26 27 28 29 30 31 32 33 34 35
000
FTUS43 KGID 311900 AAA
TAFGRI
TAF AMD
KGRI 311900Z 3119/0118 14008KT 1 1/2SM -SN OVC005
     FM312300 06007KT 1SM -SN OVC003
     FM010400 01010KT 6SM -SN OVC003
     FM010800 35022G32KT 1SM -SN OVC007
     FM011500 34025G35KT P6SM OVC015=

USA.gov is the U.S. government's official web portal to all federal, state and local government web resources and services.